createdAt,value
2022-10-03T00:02:37.575Z,101632.53
2022-10-03T00:05:36.160Z,101632.13
2022-10-03T00:08:26.447Z,101634.84
2022-10-03T00:11:07.666Z,101629.81
2022-10-03T00:13:58.808Z,101634.91
2022-10-03T00:16:45.180Z,101628.03
2022-10-03T00:19:42.468Z,101643.31
2022-10-03T00:22:34.754Z,101637.56
2022-10-03T00:25:41.664Z,101638.63
2022-10-03T00:28:55.304Z,101643.97
2022-10-03T00:31:43.455Z,101652.84
2022-10-03T00:34:44.226Z,101644.75
2022-10-03T00:37:24.175Z,101653.69
2022-10-03T00:40:11.735Z,101658.91
2022-10-03T00:43:13.672Z,101660.22
2022-10-03T00:45:58.443Z,101661.00
2022-10-03T00:48:43.887Z,101663.19
2022-10-03T00:51:45.253Z,101670.69
2022-10-03T00:54:23.975Z,101669.13
2022-10-03T00:56:56.994Z,101673.88
2022-10-03T00:59:39.256Z,101681.59
2022-10-03T01:02:34.695Z,101679.81
2022-10-03T01:05:41.371Z,101679.56
2022-10-03T01:08:29.475Z,101678.78
2022-10-03T01:11:21.429Z,101677.38
2022-10-03T01:14:13.003Z,101685.06
2022-10-03T01:17:04.619Z,101685.28
2022-10-03T01:20:06.070Z,101683.00
2022-10-03T01:23:01.938Z,101672.59
2022-10-03T01:25:47.993Z,101675.50
2022-10-03T01:29:05.831Z,101677.13
2022-10-03T01:31:47.926Z,101686.28
2022-10-03T01:35:11.875Z,101685.06
2022-10-03T01:37:58.256Z,101695.50
2022-10-03T01:40:29.674Z,101692.41
2022-10-03T01:43:09.598Z,101699.69
2022-10-03T01:45:40.988Z,101690.56
2022-10-03T01:48:30.933Z,101698.03
2022-10-03T01:51:08.485Z,101701.72
2022-10-03T01:53:48.391Z,101703.84
2022-10-03T01:56:35.780Z,101700.81
2022-10-03T01:59:14.285Z,101705.59
2022-10-03T02:01:49.895Z,101713.88
2022-10-03T02:04:31.640Z,101715.41
2022-10-03T02:07:23.114Z,101712.97
2022-10-03T02:10:24.576Z,101714.50
2022-10-03T02:13:14.094Z,101720.53
2022-10-03T02:15:57.465Z,101717.09
2022-10-03T02:18:36.416Z,101721.97
2022-10-03T02:21:32.086Z,101723.38
2022-10-03T02:24:17.453Z,101727.00
2022-10-03T02:27:28.844Z,101728.91
2022-10-03T02:30:16.462Z,101733.56
2022-10-03T02:33:11.923Z,101734.25
2022-10-03T02:35:56.372Z,101732.34
2022-10-03T02:39:05.553Z,101736.53
2022-10-03T02:41:52.199Z,101733.81
2022-10-03T02:44:35.492Z,101723.84
2022-10-03T02:47:50.409Z,101731.28
2022-10-03T02:50:42.237Z,101729.72
2022-10-03T02:53:48.351Z,101733.13
2022-10-03T02:56:34.255Z,101735.88
2022-10-03T02:59:06.828Z,101743.09
2022-10-03T03:01:48.590Z,101733.81
2022-10-03T03:04:37.284Z,101743.66
2022-10-03T03:07:59.063Z,101744.25
2022-10-03T03:10:56.315Z,101740.84
2022-10-03T03:13:40.637Z,101756.03
2022-10-03T03:16:39.500Z,101745.63
2022-10-03T03:19:17.692Z,101750.34
2022-10-03T03:22:00.877Z,101752.88
2022-10-03T03:24:30.449Z,101748.97
2022-10-03T03:27:23.490Z,101751.06
2022-10-03T03:30:02.506Z,101749.78
2022-10-03T03:33:07.452Z,101745.66
2022-10-03T03:36:10.286Z,101738.78
2022-10-03T03:39:03.076Z,101752.97
2022-10-03T03:41:56.159Z,101746.59
2022-10-03T03:44:54.317Z,101753.31
2022-10-03T03:47:37.638Z,101756.41
2022-10-03T03:50:11.395Z,101755.88
2022-10-03T03:52:57.138Z,101755.88
2022-10-03T03:55:43.050Z,101759.34
2022-10-03T03:58:37.378Z,101756.41
2022-10-03T04:01:17.872Z,101757.31
2022-10-03T04:03:53.081Z,101749.88
2022-10-03T04:06:46.098Z,101753.47
2022-10-03T04:09:25.155Z,101756.91
2022-10-03T04:11:59.163Z,101766.44
2022-10-03T04:14:41.941Z,101775.03
2022-10-03T04:18:08.848Z,101771.25
2022-10-03T04:21:07.177Z,101769.53
2022-10-03T04:24:03.497Z,101777.63
2022-10-03T04:26:59.458Z,101774.16
2022-10-03T04:29:40.346Z,101775.91
2022-10-03T04:32:34.720Z,101784.34
2022-10-03T04:35:13.370Z,101773.81
2022-10-03T04:37:49.344Z,101777.97
2022-10-03T04:40:24.916Z,101778.66
2022-10-03T04:43:01.965Z,101775.19
2022-10-03T04:45:54.475Z,101780.88
2022-10-03T04:48:44.802Z,101777.78
2022-10-03T04:51:44.075Z,101784.84
2022-10-03T04:54:26.091Z,101772.97
2022-10-03T04:57:06.155Z,101777.63
2022-10-03T04:59:48.823Z,101771.72
2022-10-03T05:02:30.736Z,101776.78
2022-10-03T05:05:40.185Z,101784.34
2022-10-03T05:08:17.312Z,101778.16
2022-10-03T05:11:34.503Z,101775.22
2022-10-03T05:14:08.972Z,101782.81
2022-10-03T05:16:42.906Z,101789.16
2022-10-03T05:19:28.437Z,101794.00
2022-10-03T05:22:08.047Z,101783.78
2022-10-03T05:24:40.448Z,101783.47
2022-10-03T05:27:35.677Z,101787.97
2022-10-03T05:30:25.447Z,101787.44
2022-10-03T05:33:06.265Z,101792.41
2022-10-03T05:35:50.907Z,101790.19
2022-10-03T05:38:59.743Z,101795.50
2022-10-03T05:41:32.488Z,101790.19
2022-10-03T05:44:11.829Z,101809.84
2022-10-03T05:46:47.395Z,101798.28
2022-10-03T05:49:32.732Z,101809.97
2022-10-03T05:52:32.775Z,101806.38
2022-10-03T05:55:04.006Z,101817.41
2022-10-03T05:57:52.924Z,101820.44
2022-10-03T06:00:27.083Z,101831.31
2022-10-03T06:03:14.011Z,101831.50
2022-10-03T06:05:54.036Z,101835.16
2022-10-03T06:08:40.412Z,101835.31
2022-10-03T06:11:34.624Z,101838.44
2022-10-03T06:14:24.667Z,101836.69
2022-10-03T06:16:58.570Z,101833.44
2022-10-03T06:19:51.141Z,101842.56
2022-10-03T06:22:39.352Z,101839.44
2022-10-03T06:25:40.778Z,101834.63
2022-10-03T06:28:36.566Z,101843.56
2022-10-03T06:31:35.774Z,101839.09
2022-10-03T06:34:36.161Z,101843.22
2022-10-03T06:37:31.325Z,101855.28
2022-10-03T06:40:16.753Z,101854.06
2022-10-03T06:42:46.388Z,101845.28
2022-10-03T06:45:15.996Z,101849.41
2022-10-03T06:48:21.194Z,101858.53
2022-10-03T06:51:01.373Z,101848.56
2022-10-03T06:53:46.460Z,101860.44
2022-10-03T06:56:47.653Z,101853.31
2022-10-03T06:59:25.864Z,101855.22
2022-10-03T07:02:16.704Z,101854.03
2022-10-03T07:05:02.001Z,101855.19
2022-10-03T07:08:20.514Z,101868.28
2022-10-03T07:11:02.283Z,101878.28
2022-10-03T07:14:06.287Z,101872.25
2022-10-03T07:16:45.193Z,101874.50
2022-10-03T07:19:30.795Z,101877.44
2022-10-03T07:22:17.124Z,101874.50
2022-10-03T07:25:05.242Z,101883.63
2022-10-03T07:27:52.841Z,101888.81
2022-10-03T07:30:24.117Z,101892.06
2022-10-03T07:33:05.892Z,101886.75
2022-10-03T07:36:23.969Z,101891.53
2022-10-03T07:39:28.188Z,101886.34
2022-10-03T07:42:06.991Z,101889.91
2022-10-03T07:44:53.783Z,101895.59
2022-10-03T07:47:48.553Z,101900.56
2022-10-03T07:50:37.320Z,101905.91
2022-10-03T07:53:31.922Z,101907.41
2022-10-03T07:56:00.317Z,101915.78
2022-10-03T07:58:33.937Z,101907.56
2022-10-03T08:01:18.137Z,101914.34
2022-10-03T08:04:03.865Z,101919.53
2022-10-03T08:06:42.205Z,101925.00
2022-10-03T08:09:14.712Z,101925.63
2022-10-03T08:12:05.494Z,101928.16
2022-10-03T08:14:46.926Z,101917.78
2022-10-03T08:17:16.366Z,101922.19
2022-10-03T08:19:59.998Z,101932.22
2022-10-03T08:22:48.296Z,101936.97
2022-10-03T08:25:29.755Z,101943.34
2022-10-03T08:28:21.590Z,101937.94
2022-10-03T08:31:17.582Z,101949.28
2022-10-03T08:33:51.478Z,101953.66
2022-10-03T08:36:43.078Z,101949.81
2022-10-03T08:39:12.817Z,101944.41
2022-10-03T08:42:07.871Z,101944.91
2022-10-03T08:45:07.203Z,101943.63
2022-10-03T08:47:55.728Z,101950.19
2022-10-03T08:50:44.134Z,101940.13
2022-10-03T08:53:47.696Z,101943.03
2022-10-03T08:56:35.496Z,101945.03
2022-10-03T08:59:20.463Z,101942.66
2022-10-03T09:02:15.684Z,101941.69
2022-10-03T09:05:01.570Z,101945.41
2022-10-03T09:07:46.858Z,101936.38
2022-10-03T09:10:26.541Z,101936.13
2022-10-03T09:13:24.099Z,101936.13
2022-10-03T09:15:50.830Z,101939.66
2022-10-03T09:18:29.272Z,101942.78
2022-10-03T09:21:06.936Z,101943.47
2022-10-03T09:23:45.627Z,101943.97
2022-10-03T09:26:17.926Z,101945.88
2022-10-03T09:29:14.931Z,101936.50
2022-10-03T09:32:09.981Z,101940.06
2022-10-03T09:34:48.803Z,101935.47
2022-10-03T09:37:38.504Z,101923.34
2022-10-03T09:40:21.275Z,101923.34
2022-10-03T09:43:03.075Z,101934.44
2022-10-03T09:45:41.814Z,101926.91
2022-10-03T09:49:02.047Z,101923.75
2022-10-03T09:51:33.238Z,101920.69
2022-10-03T09:54:34.157Z,101917.03
2022-10-03T09:57:30.201Z,101923.75
2022-10-03T10:00:21.771Z,101921.38
2022-10-03T10:03:03.739Z,101919.13
2022-10-03T10:06:05.768Z,101917.66
2022-10-03T10:08:53.877Z,101913.63
2022-10-03T10:11:52.288Z,101900.25
2022-10-03T10:14:56.167Z,101902.06
2022-10-03T10:17:42.502Z,101908.22
2022-10-03T10:20:34.376Z,101903.91
2022-10-03T10:23:38.339Z,101893.25
2022-10-03T10:26:29.769Z,101891.53
2022-10-03T10:29:14.126Z,101888.75
2022-10-03T10:31:59.509Z,101890.47
2022-10-03T10:34:56.854Z,101881.53
2022-10-03T10:37:46.757Z,101881.28
2022-10-03T10:40:16.454Z,101876.78
2022-10-03T10:43:15.756Z,101870.34
2022-10-03T10:46:17.675Z,101885.88
2022-10-03T10:48:53.392Z,101885.28
2022-10-03T10:51:54.104Z,101889.31
2022-10-03T10:54:51.118Z,101883.94
2022-10-03T10:57:40.431Z,101895.66
2022-10-03T11:00:30.860Z,101890.63
2022-10-03T11:03:19.287Z,101883.59
2022-10-03T11:06:31.546Z,101874.53
2022-10-03T11:09:17.215Z,101879.63
2022-10-03T11:12:26.417Z,101877.75
2022-10-03T11:15:15.052Z,101870.31
2022-10-03T11:18:10.513Z,101866.47
2022-10-03T11:20:59.943Z,101860.59
2022-10-03T11:23:51.511Z,101870.69
2022-10-03T11:26:49.901Z,101868.47
2022-10-03T11:29:54.388Z,101867.00
2022-10-03T11:32:54.587Z,101861.50
2022-10-03T11:35:30.045Z,101860.63
2022-10-03T11:37:59.712Z,101868.72
2022-10-03T11:40:44.912Z,101858.84
2022-10-03T11:43:45.847Z,101864.00
2022-10-03T11:46:41.736Z,101855.94
2022-10-03T11:49:51.226Z,101860.69
2022-10-03T11:52:27.826Z,101866.38
2022-10-03T11:55:28.086Z,101866.59
2022-10-03T11:58:32.006Z,101861.72
2022-10-03T12:01:23.964Z,101870.75
2022-10-03T12:04:11.097Z,101853.63
2022-10-03T12:07:06.777Z,101846.66
2022-10-03T12:10:03.165Z,101842.59
2022-10-03T12:12:48.220Z,101845.84
2022-10-03T12:15:34.829Z,101851.84
2022-10-03T12:18:20.328Z,101854.47
2022-10-03T12:21:08.978Z,101850.13
2022-10-03T12:24:03.048Z,101850.53
2022-10-03T12:26:49.311Z,101853.19
2022-10-03T12:29:19.254Z,101836.03
2022-10-03T12:32:11.913Z,101843.13
2022-10-03T12:34:51.988Z,101836.47
2022-10-03T12:37:50.653Z,101833.94
2022-10-03T12:40:29.812Z,101832.47
2022-10-03T12:43:16.585Z,101837.81
2022-10-03T12:45:54.568Z,101830.03
2022-10-03T12:48:47.945Z,101839.44
2022-10-03T12:51:20.683Z,101838.34
2022-10-03T12:54:01.212Z,101849.03
2022-10-03T12:56:42.025Z,101838.75
2022-10-03T12:59:31.755Z,101844.97
2022-10-03T13:02:20.350Z,101839.22
2022-10-03T13:04:58.389Z,101841.25
2022-10-03T13:07:52.363Z,101840.59
2022-10-03T13:10:38.776Z,101841.03
2022-10-03T13:13:33.524Z,101841.69
2022-10-03T13:16:19.593Z,101840.81
2022-10-03T13:19:03.020Z,101834.59
2022-10-03T13:21:45.366Z,101842.06
2022-10-03T13:24:22.184Z,101839.94
2022-10-03T13:27:10.583Z,101829.16
2022-10-03T13:30:14.358Z,101827.34
2022-10-03T13:32:46.234Z,101829.69
2022-10-03T13:35:48.655Z,101832.91
2022-10-03T13:38:24.145Z,101828.66
2022-10-03T13:41:03.225Z,101831.91
2022-10-03T13:43:37.753Z,101826.34
2022-10-03T13:46:15.134Z,101819.44
2022-10-03T13:48:49.974Z,101816.47
2022-10-03T13:51:34.526Z,101808.13
2022-10-03T13:54:32.625Z,101813.28
2022-10-03T13:57:20.204Z,101807.09
2022-10-03T14:02:01.487Z,101807.72
2022-10-03T14:04:53.221Z,101806.63
2022-10-03T14:07:36.938Z,101809.19
2022-10-03T14:10:20.936Z,101798.50
2022-10-03T14:13:12.600Z,101793.38
2022-10-03T14:15:46.091Z,101794.00
2022-10-03T14:18:44.794Z,101802.16
2022-10-03T14:21:27.852Z,101792.94
2022-10-03T14:24:02.740Z,101791.19
2022-10-03T14:26:32.389Z,101783.09
2022-10-03T14:29:10.982Z,101786.53
2022-10-03T14:31:56.868Z,101783.53
2022-10-03T14:34:42.252Z,101775.41
2022-10-03T14:37:23.652Z,101781.38
2022-10-03T14:40:04.997Z,101777.50
2022-10-03T14:42:48.690Z,101777.34
2022-10-03T14:45:18.958Z,101774.75
2022-10-03T14:47:52.670Z,101775.41
2022-10-03T14:50:24.236Z,101778.78
2022-10-03T14:53:13.462Z,101778.81
2022-10-03T14:55:47.311Z,101765.28
2022-10-03T14:58:32.383Z,101765.53
2022-10-03T15:01:12.940Z,101763.81
2022-10-03T15:03:59.884Z,101758.28
2022-10-03T15:06:44.855Z,101761.03
2022-10-03T15:09:16.864Z,101763.19
2022-10-03T15:12:09.981Z,101760.81
2022-10-03T15:14:42.312Z,101761.47
2022-10-03T15:17:19.950Z,101762.56
2022-10-03T15:19:54.806Z,101761.91
2022-10-03T15:22:32.576Z,101760.41
2022-10-03T15:25:17.169Z,101759.75
2022-10-03T15:27:48.643Z,101745.16
2022-10-03T15:30:39.141Z,101742.81
2022-10-03T15:33:21.254Z,101736.56
2022-10-03T15:35:53.359Z,101737.16
2022-10-03T15:38:33.879Z,101734.00
2022-10-03T15:41:00.393Z,101728.88
2022-10-03T15:43:33.388Z,101733.75
2022-10-03T15:46:06.289Z,101725.25
2022-10-03T15:48:33.842Z,101716.22
2022-10-03T15:51:19.287Z,101710.25
2022-10-03T15:53:51.350Z,101713.91
2022-10-03T15:56:24.460Z,101724.41
2022-10-03T15:58:55.137Z,101717.56
2022-10-03T16:01:28.870Z,101705.13
2022-10-03T16:04:02.866Z,101712.44
2022-10-03T16:06:42.274Z,101715.44
2022-10-03T16:09:37.542Z,101705.13
2022-10-03T16:12:42.996Z,101715.22
2022-10-03T16:15:28.447Z,101714.59
2022-10-03T16:18:32.287Z,101720.16
2022-10-03T16:21:01.821Z,101717.63
2022-10-03T16:23:36.589Z,101717.19
2022-10-03T16:26:23.795Z,101718.03
2022-10-03T16:29:09.765Z,101723.59
2022-10-03T16:31:39.846Z,101718.03
2022-10-03T16:34:13.889Z,101718.47
2022-10-03T16:36:45.653Z,101721.69
2022-10-03T16:39:34.998Z,101716.34
2022-10-03T16:42:12.732Z,101717.63
2022-10-03T16:44:50.348Z,101717.19
2022-10-03T16:47:27.837Z,101719.31
2022-10-03T16:50:17.538Z,101720.81
2022-10-03T16:52:47.760Z,101720.97
2022-10-03T16:55:20.453Z,101717.75
2022-10-03T16:57:57.066Z,101720.50
2022-10-03T17:00:32.079Z,101716.63
2022-10-03T17:02:58.986Z,101708.75
2022-10-03T17:05:26.402Z,101699.09
2022-10-03T17:08:23.632Z,101704.44
2022-10-03T17:10:55.430Z,101715.75
2022-10-03T17:13:28.022Z,101708.00
2022-10-03T17:16:02.515Z,101708.66
2022-10-03T17:18:40.334Z,101708.41
2022-10-03T17:21:30.985Z,101690.72
2022-10-03T17:24:11.091Z,101706.06
2022-10-03T17:26:41.972Z,101702.63
2022-10-03T17:29:20.526Z,101706.25
2022-10-03T17:32:00.482Z,101690.63
2022-10-03T17:34:33.158Z,101689.19
2022-10-03T17:37:23.934Z,101691.63
2022-10-03T17:40:11.550Z,101696.63
2022-10-03T17:42:46.149Z,101689.34
2022-10-03T17:45:34.136Z,101689.44
2022-10-03T17:48:25.063Z,101694.31
2022-10-03T17:50:58.438Z,101701.78
2022-10-03T17:53:35.843Z,101693.66
2022-10-03T17:56:21.999Z,101688.88
2022-10-03T17:59:04.069Z,101696.97
2022-10-03T18:01:37.143Z,101695.66
2022-10-03T18:04:07.185Z,101688.78
2022-10-03T18:06:46.213Z,101695.63
2022-10-03T18:09:15.417Z,101684.56
2022-10-03T18:11:43.596Z,101689.41
2022-10-03T18:14:31.886Z,101681.56
2022-10-03T18:17:17.147Z,101678.16
2022-10-03T18:20:02.518Z,101683.22
2022-10-03T18:22:32.101Z,101678.53
2022-10-03T18:25:35.818Z,101671.69
2022-10-03T18:28:08.579Z,101676.50
2022-10-03T18:31:04.743Z,101680.13
2022-10-03T18:33:42.332Z,101668.22
2022-10-03T18:36:20.650Z,101673.47
2022-10-03T18:38:50.013Z,101667.34
2022-10-03T18:41:19.125Z,101664.56
2022-10-03T18:44:00.400Z,101666.63
2022-10-03T18:46:38.952Z,101664.47
2022-10-03T18:49:34.417Z,101664.06
2022-10-03T18:52:23.788Z,101666.97
2022-10-03T18:55:18.880Z,101660.63
2022-10-03T18:58:00.689Z,101669.31
2022-10-03T19:00:30.991Z,101665.75
2022-10-03T19:03:00.922Z,101662.31
2022-10-03T19:05:45.706Z,101655.91
2022-10-03T19:08:28.546Z,101671.41
2022-10-03T19:11:13.868Z,101668.97
2022-10-03T19:13:54.141Z,101672.63
2022-10-03T19:16:46.384Z,101684.56
2022-10-03T19:19:24.956Z,101684.22
2022-10-03T19:21:52.550Z,101675.50
2022-10-03T19:24:56.653Z,101683.06
2022-10-03T19:27:38.176Z,101673.41
2022-10-03T19:30:06.983Z,101676.56
2022-10-03T19:32:56.735Z,101664.63
2022-10-03T19:35:24.950Z,101678.69
2022-10-03T19:37:55.323Z,101677.41
2022-10-03T19:40:43.540Z,101675.19
2022-10-03T19:43:40.487Z,101663.16
2022-10-03T19:46:10.082Z,101671.09
2022-10-03T19:48:52.460Z,101658.94
2022-10-03T19:51:25.767Z,101671.41
2022-10-03T19:53:56.538Z,101665.47
2022-10-03T19:56:25.476Z,101662.63
2022-10-03T19:59:03.904Z,101665.28
2022-10-03T20:01:49.560Z,101665.72
2022-10-03T20:04:36.338Z,101662.31
2022-10-03T20:07:19.555Z,101666.56
2022-10-03T20:10:07.104Z,101671.66
2022-10-03T20:12:43.541Z,101666.63
2022-10-03T20:15:25.065Z,101661.03
2022-10-03T20:17:57.581Z,101667.25
2022-10-03T20:20:25.748Z,101656.19
2022-10-03T20:22:55.863Z,101655.13
2022-10-03T20:25:52.673Z,101662.44
2022-10-03T20:28:29.341Z,101650.72
2022-10-03T20:30:56.049Z,101644.88
2022-10-03T20:33:33.086Z,101647.28
2022-10-03T20:36:10.252Z,101655.31
2022-10-03T20:38:36.760Z,101656.81
2022-10-03T20:41:15.782Z,101653.88
2022-10-03T20:43:50.675Z,101647.78
2022-10-03T20:46:18.705Z,101643.16
2022-10-03T20:49:11.514Z,101642.88
2022-10-03T20:51:51.945Z,101644.31
2022-10-03T20:54:24.655Z,101653.31
2022-10-03T20:56:56.790Z,101649.84
2022-10-03T20:59:36.404Z,101650.78
2022-10-03T21:02:17.880Z,101646.56
2022-10-03T21:04:53.708Z,101646.97
2022-10-03T21:07:38.248Z,101650.78
2022-10-03T21:10:18.394Z,101638.31
2022-10-03T21:12:49.884Z,101631.84
2022-10-03T21:15:37.873Z,101635.34
2022-10-03T21:18:05.713Z,101626.94
2022-10-03T21:20:38.640Z,101628.25
2022-10-03T21:23:22.602Z,101644.78
2022-10-03T21:25:51.851Z,101640.34
2022-10-03T21:28:24.746Z,101643.44
2022-10-03T21:31:16.622Z,101642.84
2022-10-03T21:33:56.319Z,101631.19
2022-10-03T21:37:05.116Z,101630.06
2022-10-03T21:39:45.007Z,101627.16
2022-10-03T21:42:53.573Z,101629.97
2022-10-03T21:45:31.612Z,101630.66
2022-10-03T21:48:14.516Z,101636.16
2022-10-03T21:50:47.998Z,101642.44
2022-10-03T21:53:19.216Z,101640.75
2022-10-03T21:56:08.550Z,101631.31
2022-10-03T21:58:35.552Z,101627.28
2022-10-03T22:01:28.960Z,101628.69
2022-10-03T22:04:19.810Z,101641.84
2022-10-03T22:06:58.443Z,101631.03
2022-10-03T22:09:25.166Z,101638.16
2022-10-03T22:11:59.503Z,101629.00
2022-10-03T22:15:15.050Z,101640.38
2022-10-03T22:17:55.885Z,101638.53
2022-10-03T22:20:25.956Z,101625.28
2022-10-03T22:23:09.681Z,101605.81
2022-10-03T22:26:02.732Z,101582.44
2022-10-03T22:28:29.291Z,101599.56
2022-10-03T22:31:13.707Z,101596.78
2022-10-03T22:34:22.651Z,101590.25
2022-10-03T22:36:50.206Z,101598.88
2022-10-03T22:39:18.699Z,101594.41
2022-10-03T22:41:53.316Z,101606.72
2022-10-03T22:44:26.978Z,101607.19
2022-10-03T22:46:57.425Z,101599.81
2022-10-03T22:49:35.096Z,101596.31
2022-10-03T22:52:05.042Z,101586.88
2022-10-03T22:54:36.236Z,101583.97
2022-10-03T22:57:09.436Z,101592.34
2022-10-03T22:59:46.785Z,101588.97
2022-10-03T23:02:15.108Z,101589.81
2022-10-03T23:04:56.314Z,101583.16
2022-10-03T23:07:43.037Z,101585.88
2022-10-03T23:10:24.197Z,101576.69
2022-10-03T23:12:58.769Z,101570.91
2022-10-03T23:15:27.234Z,101572.53
2022-10-03T23:17:53.682Z,101575.84
2022-10-03T23:20:23.100Z,101566.91
2022-10-03T23:22:56.123Z,101574.19
2022-10-03T23:25:58.280Z,101570.28
2022-10-03T23:28:44.841Z,101572.28
2022-10-03T23:31:48.677Z,101565.25
2022-10-03T23:34:37.297Z,101557.00
2022-10-03T23:37:15.659Z,101564.09
2022-10-03T23:39:44.616Z,101566.00
2022-10-03T23:42:32.403Z,101559.00
2022-10-03T23:45:10.557Z,101557.22
2022-10-03T23:48:08.286Z,101558.66
2022-10-03T23:50:44.005Z,101551.56
2022-10-03T23:53:31.427Z,101546.34
2022-10-03T23:56:01.219Z,101540.50
2022-10-03T23:58:31.057Z,101537.84
